Time;durP1;ratioP1;P1;durP2;ratioP2;P2;SDS_P1;SDS_P2;PMS_P1;PMS_P2;Temp;Humidity;BMP_temperature;BMP_pressure;BME280_temperature;BME280_humidity;BME280_pressure;Samples;Min_cycle;Max_cycle;Signal;HPM_P1;HPM_P2
2022/08/18 00:00:12;;;;;;;11.10;10.00;;;;;;;;;;519265;28;1495;-88
2022/08/18 00:00:28;;;;;;;11.38;10.15;;;;;;;;;;520404;28;1591;-87
2022/08/18 00:00:44;;;;;;;11.23;10.02;;;;;;;;;;519705;28;1482;-88
2022/08/18 00:00:59;;;;;;;10.97;9.80;;;;;;;;;;520692;28;1579;-88
2022/08/18 00:01:15;;;;;;;11.10;10.00;;;;;;;;;;518416;28;1508;-88
2022/08/18 00:01:31;;;;;;;11.00;10.00;;;;;;;;;;518127;28;1562;-88
2022/08/18 00:02:10;;;;;;;11.30;10.20;;;;;;;;;;517675;28;1556;-88
2022/08/18 00:02:28;;;;;;;11.02;9.88;;;;;;;;;;519261;28;1441;-88
2022/08/18 00:02:44;;;;;;;11.10;10.00;;;;;;;;;;520486;28;1571;-88
2022/08/18 00:03:04;;;;;;;11.40;10.30;;;;;;;;;;521941;28;1549;-88
2022/08/18 00:03:20;;;;;;;10.98;9.98;;;;;;;;;;525059;28;1428;-87
2022/08/18 00:03:35;;;;;;;11.20;10.10;;;;;;;;;;522610;28;1494;-88
2022/08/18 00:03:51;;;;;;;11.33;10.13;;;;;;;;;;522546;28;1981;-88
2022/08/18 00:04:08;;;;;;;11.47;9.87;;;;;;;;;;520162;28;1363;-88
2022/08/18 00:04:23;;;;;;;11.10;9.90;;;;;;;;;;519771;28;1430;-88
2022/08/18 00:04:39;;;;;;;10.83;9.87;;;;;;;;;;519709;28;1465;-88
2022/08/18 00:04:55;;;;;;;11.30;10.25;;;;;;;;;;519717;28;1467;-87
2022/08/18 00:05:14;;;;;;;11.32;10.30;;;;;;;;;;520091;28;1485;-87
2022/08/18 00:05:29;;;;;;;10.57;9.68;;;;;;;;;;521119;28;1465;-88
2022/08/18 00:05:44;;;;;;;10.90;9.80;;;;;;;;;;522305;28;1476;-88
2022/08/18 00:06:00;;;;;;;11.30;9.93;;;;;;;;;;521262;28;1521;-88
2022/08/18 00:06:16;;;;;;;10.63;9.50;;;;;;;;;;523356;28;1410;-88
2022/08/18 00:06:32;;;;;;;10.55;9.45;;;;;;;;;;524659;28;1428;-88
2022/08/18 00:06:47;;;;;;;10.70;9.70;;;;;;;;;;524814;28;1512;-87
2022/08/18 00:07:10;;;;;;;10.50;9.50;;;;;;;;;;523914;28;1626;-88
2022/08/18 00:07:28;;;;;;;10.50;9.50;;;;;;;;;;524321;28;1449;-88
2022/08/18 00:07:44;;;;;;;10.77;9.77;;;;;;;;;;522215;28;1462;-87
2022/08/18 00:08:00;;;;;;;10.70;9.70;;;;;;;;;;522116;28;1458;-87
2022/08/18 00:08:15;;;;;;;10.88;9.77;;;;;;;;;;517752;28;1511;-88
2022/08/18 00:08:31;;;;;;;10.75;9.68;;;;;;;;;;522435;28;1342;-88
2022/08/18 00:08:46;;;;;;;10.53;9.53;;;;;;;;;;521840;28;1571;-88
2022/08/18 00:09:06;;;;;;;10.63;9.53;;;;;;;;;;522144;28;1405;-88
2022/08/18 00:09:21;;;;;;;11.40;10.27;;;;;;;;;;521042;28;1484;-88
2022/08/18 00:09:39;;;;;;;11.13;10.03;;;;;;;;;;521198;28;1461;-88
2022/08/18 00:09:54;;;;;;;10.48;9.48;;;;;;;;;;521985;28;1589;-88
2022/08/18 00:10:10;;;;;;;10.18;9.18;;;;;;;;;;521935;28;1441;-88
2022/08/18 00:10:26;;;;;;;9.70;8.80;;;;;;;;;;522377;28;1671;-88
2022/08/18 00:10:41;;;;;;;9.95;8.95;;;;;;;;;;520320;28;1448;-88
2022/08/18 00:10:57;;;;;;;10.32;9.38;;;;;;;;;;521257;28;1637;-88
2022/08/18 00:11:14;;;;;;;10.47;9.47;;;;;;;;;;519849;28;1347;-88
2022/08/18 00:11:32;;;;;;;10.00;9.00;;;;;;;;;;518423;28;1411;-87
2022/08/18 00:11:48;;;;;;;9.52;8.73;;;;;;;;;;517840;28;1545;-88
2022/08/18 00:12:08;;;;;;;9.90;8.90;;;;;;;;;;518069;28;1479;-87
2022/08/18 00:12:30;;;;;;;10.20;9.20;;;;;;;;;;519571;28;1615;-87
2022/08/18 00:12:45;;;;;;;9.77;8.90;;;;;;;;;;521342;28;1520;-88
2022/08/18 00:13:01;;;;;;;10.10;9.20;;;;;;;;;;520368;28;1436;-88
2022/08/18 00:13:16;;;;;;;10.57;9.55;;;;;;;;;;519757;28;1415;-88
2022/08/18 00:13:32;;;;;;;10.73;9.63;;;;;;;;;;519792;28;1583;-88
2022/08/18 00:13:47;;;;;;;10.48;9.40;;;;;;;;;;519103;28;1530;-88
2022/08/18 00:14:03;;;;;;;10.50;9.50;;;;;;;;;;519283;28;1718;-88
2022/08/18 00:14:20;;;;;;;10.90;9.80;;;;;;;;;;519499;28;1424;-87
2022/08/18 00:14:36;;;;;;;10.93;9.80;;;;;;;;;;518280;28;1400;-87
2022/08/18 00:14:53;;;;;;;10.73;9.67;;;;;;;;;;520001;28;1532;-88
2022/08/18 00:15:12;;;;;;;10.80;9.70;;;;;;;;;;519176;28;1564;-88
2022/08/18 00:15:28;;;;;;;10.32;9.32;;;;;;;;;;520282;28;1531;-87
2022/08/18 00:15:43;;;;;;;10.20;9.30;;;;;;;;;;521239;28;1548;-88
2022/08/18 00:15:59;;;;;;;10.20;9.30;;;;;;;;;;519910;28;1501;-88
2022/08/18 00:16:14;;;;;;;10.13;9.23;;;;;;;;;;520118;28;1573;-88
2022/08/18 00:16:29;;;;;;;11.05;10.05;;;;;;;;;;519951;28;1540;-88
2022/08/18 00:16:45;;;;;;;11.70;10.63;;;;;;;;;;517978;28;1425;-88
2022/08/18 00:17:01;;;;;;;11.52;10.43;;;;;;;;;;518600;28;1451;-87
2022/08/18 00:17:17;;;;;;;11.00;9.98;;;;;;;;;;521864;28;1468;-87
2022/08/18 00:17:33;;;;;;;10.55;9.55;;;;;;;;;;522017;28;1499;-88
2022/08/18 00:17:53;;;;;;;10.70;9.45;;;;;;;;;;521849;28;1761;-88
2022/08/18 00:18:09;;;;;;;10.80;9.75;;;;;;;;;;523588;28;1104;-86
2022/08/18 00:18:24;;;;;;;11.10;10.10;;;;;;;;;;521307;28;1529;-86
2022/08/18 00:18:40;;;;;;;11.40;10.30;;;;;;;;;;521450;28;1428;-86
2022/08/18 00:18:55;;;;;;;10.97;9.90;;;;;;;;;;523714;28;1356;-87
2022/08/18 00:19:10;;;;;;;10.43;9.50;;;;;;;;;;523752;28;985;-87
2022/08/18 00:19:26;;;;;;;10.43;9.50;;;;;;;;;;523812;28;1512;-87
2022/08/18 00:19:42;;;;;;;10.43;9.45;;;;;;;;;;523776;28;1365;-85
2022/08/18 00:20:01;;;;;;;10.55;9.63;;;;;;;;;;519245;28;1234;-86
2022/08/18 00:20:21;;;;;;;11.35;10.25;;;;;;;;;;519817;28;1484;-88
2022/08/18 00:20:39;;;;;;;11.48;10.38;;;;;;;;;;522231;28;1675;-87
2022/08/18 00:20:55;;;;;;;11.18;10.07;;;;;;;;;;522651;28;1544;-88
2022/08/18 00:21:13;;;;;;;11.10;10.07;;;;;;;;;;520784;28;1584;-88
2022/08/18 00:21:29;;;;;;;10.75;9.75;;;;;;;;;;518663;28;1396;-88
2022/08/18 00:21:44;;;;;;;10.57;9.57;;;;;;;;;;519017;28;1570;-88
2022/08/18 00:21:59;;;;;;;10.48;9.52;;;;;;;;;;520773;28;1460;-89
2022/08/18 00:22:18;;;;;;;11.00;10.00;;;;;;;;;;519403;28;1688;-89
2022/08/18 00:22:34;;;;;;;10.93;9.82;;;;;;;;;;519223;28;1518;-88
2022/08/18 00:22:51;;;;;;;10.55;9.57;;;;;;;;;;518323;28;1432;-89
2022/08/18 00:23:06;;;;;;;10.82;9.93;;;;;;;;;;517989;28;1448;-89
2022/08/18 00:23:22;;;;;;;10.83;9.83;;;;;;;;;;518369;28;1510;-89
2022/08/18 00:23:37;;;;;;;10.90;9.90;;;;;;;;;;518218;28;1538;-89
2022/08/18 00:23:53;;;;;;;11.00;10.00;;;;;;;;;;516953;28;1918;-88
2022/08/18 00:24:08;;;;;;;10.73;9.80;;;;;;;;;;518046;28;1448;-88
2022/08/18 00:24:25;;;;;;;10.77;9.77;;;;;;;;;;518361;28;1498;-89
2022/08/18 00:24:40;;;;;;;10.93;9.82;;;;;;;;;;517156;28;1459;-88
2022/08/18 00:24:56;;;;;;;10.90;9.80;;;;;;;;;;516323;28;1520;-89
2022/08/18 00:25:15;;;;;;;10.60;9.53;;;;;;;;;;517544;28;1522;-88
2022/08/18 00:25:31;;;;;;;10.57;9.57;;;;;;;;;;517454;28;1503;-89
2022/08/18 00:25:49;;;;;;;10.70;9.70;;;;;;;;;;519132;28;1481;-88
2022/08/18 00:26:04;;;;;;;10.98;9.55;;;;;;;;;;520049;28;1475;-88
2022/08/18 00:26:21;;;;;;;10.75;9.45;;;;;;;;;;520591;28;1539;-88
2022/08/18 00:26:36;;;;;;;10.20;9.30;;;;;;;;;;522115;28;1481;-89
2022/08/18 00:26:53;;;;;;;10.20;9.25;;;;;;;;;;521745;28;1292;-88
2022/08/18 00:27:09;;;;;;;10.13;9.23;;;;;;;;;;521251;28;1558;-88
2022/08/18 00:27:28;;;;;;;9.63;8.73;;;;;;;;;;517990;28;1542;-88
2022/08/18 00:27:43;;;;;;;9.43;8.55;;;;;;;;;;519250;28;1485;-88
2022/08/18 00:27:59;;;;;;;9.50;8.80;;;;;;;;;;519190;28;1399;-88
2022/08/18 00:28:14;;;;;;;9.83;8.93;;;;;;;;;;519069;28;1481;-88
2022/08/18 00:28:30;;;;;;;9.85;8.90;;;;;;;;;;519592;28;1407;-89
2022/08/18 00:28:45;;;;;;;10.07;9.07;;;;;;;;;;520610;28;1600;-89
2022/08/18 00:29:00;;;;;;;10.23;9.30;;;;;;;;;;521846;28;1442;-89
2022/08/18 00:29:16;;;;;;;10.18;9.20;;;;;;;;;;523054;28;1426;-88
2022/08/18 00:29:31;;;;;;;9.63;8.73;;;;;;;;;;523331;28;1403;-88
2022/08/18 00:29:47;;;;;;;9.93;8.50;;;;;;;;;;523156;28;2621;-88
2022/08/18 00:30:06;;;;;;;11.00;8.70;;;;;;;;;;525902;28;1484;-88
2022/08/18 00:30:22;;;;;;;9.75;8.75;;;;;;;;;;523198;28;1449;-88
2022/08/18 00:30:37;;;;;;;9.77;8.88;;;;;;;;;;522728;28;1707;-88
2022/08/18 00:30:53;;;;;;;9.23;8.43;;;;;;;;;;522902;28;1438;-88
2022/08/18 00:31:08;;;;;;;9.18;8.27;;;;;;;;;;520692;28;1525;-88
2022/08/18 00:31:24;;;;;;;9.57;8.57;;;;;;;;;;519979;28;1567;-89
2022/08/18 00:31:40;;;;;;;9.95;9.07;;;;;;;;;;520430;28;1506;-88
2022/08/18 00:31:55;;;;;;;10.00;9.10;;;;;;;;;;521671;28;1461;-88
2022/08/18 00:32:16;;;;;;;9.37;8.50;;;;;;;;;;522960;28;1394;-89
2022/08/18 00:32:35;;;;;;;9.80;8.80;;;;;;;;;;523490;28;1394;-88
2022/08/18 00:32:55;;;;;;;9.73;8.88;;;;;;;;;;519916;28;1534;-88
2022/08/18 00:33:10;;;;;;;9.98;9.07;;;;;;;;;;522223;28;1437;-88
2022/08/18 00:33:26;;;;;;;10.30;9.30;;;;;;;;;;522059;28;1538;-89
2022/08/18 00:33:42;;;;;;;9.68;8.77;;;;;;;;;;520102;28;1735;-89
2022/08/18 00:33:59;;;;;;;9.18;8.38;;;;;;;;;;520398;28;1889;-88
2022/08/18 00:34:14;;;;;;;9.10;8.30;;;;;;;;;;522231;28;1470;-89
2022/08/18 00:34:29;;;;;;;9.27;8.33;;;;;;;;;;522294;28;1441;-88
2022/08/18 00:34:45;;;;;;;9.50;8.60;;;;;;;;;;522872;28;1504;-88
2022/08/18 00:35:11;;;;;;;9.85;8.95;;;;;;;;;;518421;28;1424;-88
2022/08/18 00:35:32;;;;;;;9.70;8.90;;;;;;;;;;518900;28;1432;-88
2022/08/18 00:35:48;;;;;;;9.73;8.82;;;;;;;;;;520904;28;1446;-89
2022/08/18 00:36:03;;;;;;;10.45;9.45;;;;;;;;;;518036;28;1664;-88
2022/08/18 00:36:19;;;;;;;10.53;9.60;;;;;;;;;;518577;28;1412;-88
2022/08/18 00:36:34;;;;;;;10.10;9.20;;;;;;;;;;518638;28;1439;-89
2022/08/18 00:36:50;;;;;;;9.83;9.00;;;;;;;;;;518980;28;1416;-89
2022/08/18 00:37:05;;;;;;;9.47;8.67;;;;;;;;;;518375;28;1602;-89
2022/08/18 00:37:22;;;;;;;9.70;8.90;;;;;;;;;;517368;28;1866;-89
2022/08/18 00:37:39;;;;;;;9.80;9.00;;;;;;;;;;519193;28;1461;-89
2022/08/18 00:37:57;;;;;;;9.77;8.88;;;;;;;;;;518765;28;1501;-89
2022/08/18 00:38:13;;;;;;;9.90;9.10;;;;;;;;;;518555;28;1571;-89
2022/08/18 00:38:28;;;;;;;10.27;9.47;;;;;;;;;;516403;28;1579;-88
2022/08/18 00:38:43;;;;;;;10.38;9.57;;;;;;;;;;514488;28;1519;-88
2022/08/18 00:38:59;;;;;;;10.63;9.63;;;;;;;;;;516592;28;1424;-88
2022/08/18 00:39:15;;;;;;;10.70;9.60;;;;;;;;;;516079;28;1614;-88
2022/08/18 00:39:33;;;;;;;10.02;9.13;;;;;;;;;;514693;28;1436;-88
2022/08/18 00:39:52;;;;;;;9.88;8.98;;;;;;;;;;515506;28;1396;-88
2022/08/18 00:40:10;;;;;;;9.98;9.02;;;;;;;;;;515979;28;1493;-88
2022/08/18 00:40:29;;;;;;;9.90;8.95;;;;;;;;;;516688;28;1448;-88
2022/08/18 00:40:48;;;;;;;9.70;8.80;;;;;;;;;;518698;28;1551;-88
2022/08/18 00:41:04;;;;;;;9.40;8.60;;;;;;;;;;517934;28;1435;-89
2022/08/18 00:41:20;;;;;;;9.85;8.95;;;;;;;;;;519493;28;1656;-88
2022/08/18 00:41:35;;;;;;;10.60;9.50;;;;;;;;;;519918;28;1474;-89
2022/08/18 00:41:51;;;;;;;10.20;9.20;;;;;;;;;;519748;28;1847;-88
2022/08/18 00:42:23;;;;;;;9.63;8.83;;;;;;;;;;521673;28;1471;-88
2022/08/18 00:42:44;;;;;;;9.43;8.52;;;;;;;;;;519661;28;1548;-89
2022/08/18 00:43:02;;;;;;;9.27;8.48;;;;;;;;;;519386;28;1526;-88
2022/08/18 00:43:44;;;;;;;9.50;8.70;;;;;;;;;;518929;28;1454;-89
2022/08/18 00:44:03;;;;;;;9.80;8.90;;;;;;;;;;519755;28;1694;-89
2022/08/18 00:44:18;;;;;;;9.60;8.70;;;;;;;;;;518396;28;1621;-89
2022/08/18 00:44:33;;;;;;;9.82;8.93;;;;;;;;;;517052;28;1411;-88
2022/08/18 00:44:49;;;;;;;10.00;9.10;;;;;;;;;;517363;28;1466;-88
2022/08/18 00:45:05;;;;;;;9.97;9.10;;;;;;;;;;518162;28;1558;-89
2022/08/18 00:45:26;;;;;;;9.90;9.05;;;;;;;;;;516722;28;1526;-89
2022/08/18 00:45:42;;;;;;;9.48;8.68;;;;;;;;;;515450;28;1504;-89
2022/08/18 00:45:58;;;;;;;9.45;8.65;;;;;;;;;;517533;28;1619;-88
2022/08/18 00:46:17;;;;;;;9.20;8.40;;;;;;;;;;516569;28;1610;-88
2022/08/18 00:46:35;;;;;;;9.40;8.60;;;;;;;;;;519004;28;1593;-89
2022/08/18 00:46:51;;;;;;;9.98;9.07;;;;;;;;;;519277;28;1554;-88
2022/08/18 00:47:06;;;;;;;10.30;9.30;;;;;;;;;;519871;28;1682;-88
2022/08/18 00:47:22;;;;;;;10.27;9.38;;;;;;;;;;520075;28;1513;-88
2022/08/18 00:47:37;;;;;;;10.40;9.50;;;;;;;;;;522333;28;1561;-88
2022/08/18 00:47:53;;;;;;;10.65;9.65;;;;;;;;;;520545;28;1592;-88
2022/08/18 00:48:11;;;;;;;11.13;9.77;;;;;;;;;;521407;28;1588;-87
2022/08/18 00:48:27;;;;;;;10.80;9.77;;;;;;;;;;520039;28;1453;-85
2022/08/18 00:48:42;;;;;;;10.43;9.52;;;;;;;;;;519934;28;1718;-86
2022/08/18 00:48:58;;;;;;;10.83;9.83;;;;;;;;;;519944;28;1507;-86
2022/08/18 00:49:15;;;;;;;11.20;10.10;;;;;;;;;;517719;28;1612;-86
2022/08/18 00:49:31;;;;;;;11.20;10.20;;;;;;;;;;515524;28;1383;-86
2022/08/18 00:49:50;;;;;;;11.10;10.10;;;;;;;;;;516516;28;1452;-86
2022/08/18 00:50:06;;;;;;;11.57;10.48;;;;;;;;;;519121;28;1691;-85
2022/08/18 00:50:32;;;;;;;11.10;10.10;;;;;;;;;;518896;28;1417;-86
2022/08/18 00:50:57;;;;;;;11.00;10.10;;;;;;;;;;518350;28;1603;-86
2022/08/18 00:51:28;;;;;;;10.23;9.32;;;;;;;;;;519365;28;1459;-86
2022/08/18 00:51:49;;;;;;;10.93;9.85;;;;;;;;;;519761;28;1477;-86
2022/08/18 00:52:05;;;;;;;10.82;9.73;;;;;;;;;;518450;28;1517;-85
2022/08/18 00:52:22;;;;;;;10.20;9.32;;;;;;;;;;517514;28;1496;-86
2022/08/18 00:52:38;;;;;;;10.70;9.70;;;;;;;;;;516192;28;1385;-85
2022/08/18 00:53:01;;;;;;;10.70;9.70;;;;;;;;;;517708;28;1559;-86
2022/08/18 00:53:19;;;;;;;10.02;9.07;;;;;;;;;;517812;28;1686;-85
2022/08/18 00:53:49;;;;;;;10.15;9.15;;;;;;;;;;518036;28;1346;-86
2022/08/18 00:54:09;;;;;;;10.35;9.43;;;;;;;;;;521878;28;1224;-85
2022/08/18 00:54:29;;;;;;;10.23;9.32;;;;;;;;;;524075;28;1284;-86
2022/08/18 00:54:46;;;;;;;9.87;9.07;;;;;;;;;;523797;28;1754;-86
2022/08/18 00:55:03;;;;;;;9.63;8.82;;;;;;;;;;522087;28;1746;-86
2022/08/18 00:55:20;;;;;;;10.15;9.25;;;;;;;;;;522286;28;1479;-86
2022/08/18 00:55:39;;;;;;;10.70;9.70;;;;;;;;;;520688;28;1394;-86
2022/08/18 00:55:57;;;;;;;11.05;9.98;;;;;;;;;;522432;28;1384;-86
2022/08/18 00:56:21;;;;;;;10.93;9.85;;;;;;;;;;519120;28;1704;-85
2022/08/18 00:56:42;;;;;;;10.60;9.70;;;;;;;;;;519861;28;1745;-86
2022/08/18 00:57:01;;;;;;;11.20;10.20;;;;;;;;;;521546;28;1827;-86
2022/08/18 00:57:20;;;;;;;11.32;10.27;;;;;;;;;;521748;28;1693;-86
2022/08/18 00:57:35;;;;;;;10.57;9.57;;;;;;;;;;519896;28;1370;-86
2022/08/18 00:57:56;;;;;;;10.90;9.90;;;;;;;;;;519942;28;1442;-86
2022/08/18 00:58:17;;;;;;;11.05;10.05;;;;;;;;;;522845;28;1362;-86
2022/08/18 00:58:44;;;;;;;10.90;9.88;;;;;;;;;;523535;28;1570;-86
2022/08/18 00:59:06;;;;;;;11.38;10.18;;;;;;;;;;523865;28;1614;-86
2022/08/18 00:59:36;;;;;;;11.20;10.20;;;;;;;;;;521905;28;1480;-86
2022/08/18 01:00:01;;;;;;;10.48;9.48;;;;;;;;;;522163;28;1379;-86
2022/08/18 01:00:17;;;;;;;10.88;9.82;;;;;;;;;;519842;28;1366;-86
2022/08/18 01:00:32;;;;;;;10.83;9.83;;;;;;;;;;520217;28;1236;-86
2022/08/18 01:00:50;;;;;;;10.73;9.82;;;;;;;;;;520053;28;1459;-86
2022/08/18 01:01:07;;;;;;;10.45;9.55;;;;;;;;;;519937;28;1558;-86
2022/08/18 01:01:27;;;;;;;10.52;9.52;;;;;;;;;;521914;28;1507;-86
2022/08/18 01:01:44;;;;;;;11.15;10.05;;;;;;;;;;521810;28;1109;-86
2022/08/18 01:02:02;;;;;;;10.90;9.90;;;;;;;;;;519920;28;1596;-86
2022/08/18 01:02:22;;;;;;;10.98;9.90;;;;;;;;;;521842;28;1540;-85
2022/08/18 01:02:44;;;;;;;10.60;9.70;;;;;;;;;;521199;28;1522;-86
2022/08/18 01:03:05;;;;;;;10.38;9.48;;;;;;;;;;519788;28;1432;-85
2022/08/18 01:03:23;;;;;;;10.30;9.40;;;;;;;;;;518141;28;1758;-86
2022/08/18 01:03:42;;;;;;;10.70;9.70;;;;;;;;;;518037;28;1447;-86
2022/08/18 01:04:38;;;;;;;10.85;9.88;;;;;;;;;;520806;28;1964;-86
2022/08/18 01:05:33;;;;;;;9.90;9.00;;;;;;;;;;514429;28;1638;-86
2022/08/18 01:06:00;;;;;;;10.30;9.30;;;;;;;;;;509419;29;1600;-86
2022/08/18 01:06:31;;;;;;;9.57;8.68;;;;;;;;;;509402;29;1610;-86
2022/08/18 01:06:54;;;;;;;10.10;9.25;;;;;;;;;;509143;29;1387;-85
2022/08/18 01:07:23;;;;;;;10.10;9.30;;;;;;;;;;509629;29;1348;-86
2022/08/18 01:07:45;;;;;;;10.30;9.50;;;;;;;;;;509644;29;1274;-86
2022/08/18 01:08:02;;;;;;;10.38;9.45;;;;;;;;;;509845;29;1651;-86
2022/08/18 01:08:17;;;;;;;11.05;9.95;;;;;;;;;;509363;29;1585;-86
2022/08/18 01:08:33;;;;;;;11.17;10.10;;;;;;;;;;509805;29;1163;-86
2022/08/18 01:08:49;;;;;;;10.90;9.80;;;;;;;;;;507573;29;1312;-86
2022/08/18 01:09:07;;;;;;;10.98;9.95;;;;;;;;;;508953;29;1745;-86
2022/08/18 01:09:22;;;;;;;10.88;9.90;;;;;;;;;;509608;29;1546;-86
2022/08/18 01:09:37;;;;;;;10.70;9.63;;;;;;;;;;509625;29;1597;-86
2022/08/18 01:09:53;;;;;;;10.13;9.20;;;;;;;;;;507854;29;1425;-86
2022/08/18 01:10:08;;;;;;;10.25;9.35;;;;;;;;;;507928;29;1460;-86
2022/08/18 01:10:24;;;;;;;10.90;9.90;;;;;;;;;;507598;29;1511;-86
2022/08/18 01:10:41;;;;;;;10.88;9.88;;;;;;;;;;507643;29;1458;-86
2022/08/18 01:11:01;;;;;;;11.30;10.20;;;;;;;;;;507782;29;1678;-86
2022/08/18 01:11:16;;;;;;;11.52;10.43;;;;;;;;;;507834;29;1483;-85
2022/08/18 01:11:32;;;;;;;10.93;9.93;;;;;;;;;;507769;29;1601;-86
2022/08/18 01:11:48;;;;;;;10.40;9.50;;;;;;;;;;510818;29;1688;-86
2022/08/18 01:12:04;;;;;;;10.80;9.80;;;;;;;;;;510422;29;1480;-86
2022/08/18 01:12:19;;;;;;;11.23;10.23;;;;;;;;;;511576;29;1518;-86
2022/08/18 01:12:36;;;;;;;11.17;10.20;;;;;;;;;;511682;29;1415;-86
2022/08/18 01:12:56;;;;;;;10.88;9.90;;;;;;;;;;511557;29;1450;-85
2022/08/18 01:13:11;;;;;;;10.73;9.73;;;;;;;;;;511865;29;1364;-86
2022/08/18 01:13:30;;;;;;;10.80;9.73;;;;;;;;;;511562;29;1253;-86
2022/08/18 01:13:45;;;;;;;10.93;9.93;;;;;;;;;;509917;29;1245;-86
2022/08/18 01:14:03;;;;;;;10.47;9.57;;;;;;;;;;509738;29;1409;-86
2022/08/18 01:14:19;;;;;;;10.07;9.18;;;;;;;;;;508121;29;1254;-85
2022/08/18 01:14:36;;;;;;;9.90;9.00;;;;;;;;;;507540;29;1780;-86
2022/08/18 01:14:53;;;;;;;10.20;9.20;;;;;;;;;;505844;29;1596;-85
2022/08/18 01:15:09;;;;;;;10.50;9.50;;;;;;;;;;506210;29;1214;-86
2022/08/18 01:15:26;;;;;;;10.38;9.57;;;;;;;;;;503700;29;1587;-86
2022/08/18 01:15:42;;;;;;;11.02;9.98;;;;;;;;;;504614;29;1252;-86
2022/08/18 01:15:58;;;;;;;10.63;9.63;;;;;;;;;;505202;29;1453;-86
2022/08/18 01:21:52;;;;;;;10.30;9.38;;;;;;;;;;509893;29;1240;-86
2022/08/18 01:22:19;;;;;;;9.98;9.18;;;;;;;;;;509631;29;1290;-86
2022/08/18 01:22:46;;;;;;;10.35;9.45;;;;;;;;;;509578;29;1363;-86
2022/08/18 01:23:10;;;;;;;10.65;9.75;;;;;;;;;;509944;29;1307;-86
2022/08/18 01:23:27;;;;;;;10.27;9.38;;;;;;;;;;509447;29;1807;-86
2022/08/18 01:23:44;;;;;;;10.15;9.25;;;;;;;;;;509018;29;1507;-86
2022/08/18 01:24:03;;;;;;;10.35;9.45;;;;;;;;;;508899;29;1445;-86
2022/08/18 01:25:58;;;;;;;10.60;9.60;;;;;;;;;;510463;29;1650;-86
2022/08/18 01:26:12;;;;;;;10.80;9.90;;;;;;;;;;510747;29;1380;-86
2022/08/18 01:26:29;;;;;;;11.05;10.15;;;;;;;;;;509625;29;1488;-86
2022/08/18 01:26:49;;;;;;;11.50;10.30;;;;;;;;;;509887;29;1526;-86
2022/08/18 01:27:04;;;;;;;11.35;10.15;;;;;;;;;;509609;29;1621;-86
2022/08/18 01:27:20;;;;;;;11.30;10.20;;;;;;;;;;509683;29;1506;-86
2022/08/18 01:27:35;;;;;;;11.13;10.10;;;;;;;;;;509698;29;1475;-85
2022/08/18 01:27:51;;;;;;;11.03;10.03;;;;;;;;;;507679;29;1736;-85
2022/08/18 01:28:07;;;;;;;10.65;9.75;;;;;;;;;;507566;29;1305;-85
2022/08/18 01:28:22;;;;;;;11.07;10.05;;;;;;;;;;507663;29;1496;-86
2022/08/18 01:28:44;;;;;;;11.73;10.53;;;;;;;;;;507500;29;1490;-86
2022/08/18 01:29:10;;;;;;;11.10;10.00;;;;;;;;;;508038;29;1222;-88
2022/08/18 01:29:28;;;;;;;10.98;9.98;;;;;;;;;;508144;29;860;-88
2022/08/18 01:29:47;;;;;;;11.13;10.13;;;;;;;;;;508023;29;1420;-88
2022/08/18 01:30:09;;;;;;;11.00;10.00;;;;;;;;;;508588;29;1632;-87
2022/08/18 01:30:27;;;;;;;11.32;10.23;;;;;;;;;;508073;29;1600;-88
2022/08/18 01:30:47;;;;;;;11.40;10.30;;;;;;;;;;507119;29;1499;-88
2022/08/18 01:31:05;;;;;;;10.95;10.05;;;;;;;;;;508567;29;1518;-88
2022/08/18 01:31:33;;;;;;;10.75;9.75;;;;;;;;;;508473;29;1470;-88
2022/08/18 01:31:54;;;;;;;10.45;9.48;;;;;;;;;;508706;29;1629;-88
2022/08/18 01:32:12;;;;;;;10.48;9.48;;;;;;;;;;508982;29;1551;-88
2022/08/18 01:32:28;;;;;;;10.88;9.88;;;;;;;;;;509068;29;2730;-88
2022/08/18 01:32:46;;;;;;;11.15;10.15;;;;;;;;;;510326;29;1414;-88
2022/08/18 01:33:09;;;;;;;11.55;10.48;;;;;;;;;;507348;29;1681;-87
2022/08/18 01:33:31;;;;;;;12.07;10.98;;;;;;;;;;506999;29;1411;-88
2022/08/18 01:33:46;;;;;;;11.30;10.30;;;;;;;;;;505407;29;1542;-88
2022/08/18 01:34:03;;;;;;;11.20;10.10;;;;;;;;;;505034;29;1565;-88
2022/08/18 01:34:21;;;;;;;11.15;10.10;;;;;;;;;;504554;29;1539;-88
2022/08/18 01:34:36;;;;;;;11.40;10.30;;;;;;;;;;505063;29;1397;-88
2022/08/18 01:34:52;;;;;;;11.27;10.18;;;;;;;;;;506992;29;1496;-88
2022/08/18 01:35:09;;;;;;;11.40;10.30;;;;;;;;;;509220;29;1510;-88
2022/08/18 01:35:26;;;;;;;11.57;10.45;;;;;;;;;;507989;29;1751;-88
2022/08/18 01:35:48;;;;;;;11.43;10.32;;;;;;;;;;510134;29;1490;-88
2022/08/18 01:36:11;;;;;;;10.88;9.98;;;;;;;;;;510305;29;1485;-88
2022/08/18 01:36:28;;;;;;;10.88;9.88;;;;;;;;;;510101;29;1588;-87
2022/08/18 01:36:43;;;;;;;10.98;9.88;;;;;;;;;;508705;28;1446;-88
2022/08/18 01:36:59;;;;;;;10.77;9.77;;;;;;;;;;510260;28;1723;-88
2022/08/18 01:37:16;;;;;;;11.27;10.07;;;;;;;;;;510432;29;1733;-87
2022/08/18 01:37:32;;;;;;;11.68;10.27;;;;;;;;;;508172;29;1501;-88
2022/08/18 01:37:47;;;;;;;11.20;10.20;;;;;;;;;;514439;28;1546;-88
2022/08/18 01:38:03;;;;;;;11.00;10.10;;;;;;;;;;518195;28;1531;-88
2022/08/18 01:38:21;;;;;;;10.47;9.57;;;;;;;;;;518993;28;1419;-88
2022/08/18 01:38:37;;;;;;;10.13;9.27;;;;;;;;;;516837;28;1514;-87
2022/08/18 01:38:53;;;;;;;10.48;9.57;;;;;;;;;;517487;28;1458;-88
2022/08/18 01:39:11;;;;;;;10.75;9.85;;;;;;;;;;516967;28;1518;-87
2022/08/18 01:39:27;;;;;;;10.98;9.95;;;;;;;;;;518556;28;1449;-88
2022/08/18 01:39:44;;;;;;;11.23;10.07;;;;;;;;;;520574;28;1465;-87
2022/08/18 01:39:59;;;;;;;11.20;10.10;;;;;;;;;;519051;28;1423;-88
2022/08/18 01:40:16;;;;;;;11.40;10.30;;;;;;;;;;519218;28;1489;-88
2022/08/18 01:40:32;;;;;;;11.38;10.27;;;;;;;;;;518987;28;1477;-88
2022/08/18 01:40:49;;;;;;;11.10;10.10;;;;;;;;;;517455;28;1522;-88
2022/08/18 01:41:06;;;;;;;10.65;9.73;;;;;;;;;;518706;28;1465;-88
2022/08/18 01:41:22;;;;;;;10.85;9.88;;;;;;;;;;516753;28;1317;-88
2022/08/18 01:41:38;;;;;;;10.95;9.95;;;;;;;;;;515559;28;1455;-88
2022/08/18 01:41:54;;;;;;;10.73;9.82;;;;;;;;;;514600;28;1646;-87
2022/08/18 01:42:11;;;;;;;10.73;9.83;;;;;;;;;;516568;28;1399;-87
2022/08/18 01:42:27;;;;;;;10.73;9.82;;;;;;;;;;514948;28;2093;-87
2022/08/18 01:42:44;;;;;;;10.80;9.90;;;;;;;;;;519909;28;1438;-88
2022/08/18 01:43:03;;;;;;;10.45;9.65;;;;;;;;;;518631;28;1485;-88
2022/08/18 01:43:19;;;;;;;10.52;9.63;;;;;;;;;;515968;28;1695;-88
2022/08/18 01:43:36;;;;;;;10.67;9.67;;;;;;;;;;514753;28;1405;-88
2022/08/18 01:43:52;;;;;;;10.43;9.50;;;;;;;;;;514391;28;1965;-88
2022/08/18 01:44:10;;;;;;;10.00;9.20;;;;;;;;;;516199;28;1666;-88
2022/08/18 01:44:25;;;;;;;10.10;9.20;;;;;;;;;;514077;28;1401;-88
2022/08/18 01:44:42;;;;;;;10.40;9.40;;;;;;;;;;514241;28;1508;-87
2022/08/18 01:44:58;;;;;;;9.98;9.07;;;;;;;;;;516670;28;1530;-88
2022/08/18 01:45:16;;;;;;;9.90;9.00;;;;;;;;;;516775;28;1320;-87
2022/08/18 01:45:32;;;;;;;10.63;9.63;;;;;;;;;;517162;28;1511;-88
2022/08/18 01:45:48;;;;;;;11.23;10.18;;;;;;;;;;517916;28;1477;-88
2022/08/18 01:46:04;;;;;;;11.18;10.20;;;;;;;;;;518774;28;1437;-88
2022/08/18 01:46:20;;;;;;;10.52;9.63;;;;;;;;;;519743;28;1497;-88
2022/08/18 01:46:38;;;;;;;10.20;9.20;;;;;;;;;;519765;28;1382;-88
2022/08/18 01:46:53;;;;;;;9.90;8.90;;;;;;;;;;518341;28;1419;-88
2022/08/18 01:47:10;;;;;;;10.00;9.10;;;;;;;;;;517249;28;1730;-87
2022/08/18 01:47:27;;;;;;;10.30;9.40;;;;;;;;;;516531;28;1531;-88
2022/08/18 01:47:44;;;;;;;10.10;9.20;;;;;;;;;;516227;28;1537;-88
2022/08/18 01:47:59;;;;;;;10.00;9.10;;;;;;;;;;516805;28;1455;-88
2022/08/18 01:48:15;;;;;;;10.00;9.10;;;;;;;;;;514557;28;1734;-88
2022/08/18 01:48:33;;;;;;;10.13;9.20;;;;;;;;;;514332;28;1432;-88
2022/08/18 01:48:48;;;;;;;10.23;9.23;;;;;;;;;;517752;28;1445;-88
2022/08/18 01:49:05;;;;;;;9.93;9.02;;;;;;;;;;520041;28;1363;-88
2022/08/18 01:49:21;;;;;;;9.95;9.05;;;;;;;;;;518591;28;1443;-88
2022/08/18 01:49:40;;;;;;;9.95;9.05;;;;;;;;;;520741;28;1496;-88
2022/08/18 01:49:57;;;;;;;10.20;9.30;;;;;;;;;;524420;28;1400;-88
2022/08/18 01:50:12;;;;;;;9.65;8.82;;;;;;;;;;524463;28;1527;-87
2022/08/18 01:50:29;;;;;;;10.10;9.10;;;;;;;;;;522986;28;1558;-88
2022/08/18 01:50:44;;;;;;;10.63;9.60;;;;;;;;;;520859;28;1564;-88
2022/08/18 01:51:02;;;;;;;10.13;9.23;;;;;;;;;;519131;28;1394;-87
2022/08/18 01:51:20;;;;;;;10.38;9.43;;;;;;;;;;514981;28;1384;-87
2022/08/18 01:51:40;;;;;;;10.50;9.60;;;;;;;;;;517021;28;1502;-86
2022/08/18 01:51:55;;;;;;;10.40;9.50;;;;;;;;;;518613;28;1474;-88
2022/08/18 01:52:18;;;;;;;10.60;9.60;;;;;;;;;;516185;28;1384;-87
2022/08/18 01:52:34;;;;;;;10.23;9.38;;;;;;;;;;516759;28;1488;-87
2022/08/18 01:52:52;;;;;;;10.30;9.45;;;;;;;;;;518465;28;1502;-88
2022/08/18 01:53:07;;;;;;;10.80;9.80;;;;;;;;;;519099;28;1553;-87
2022/08/18 01:53:23;;;;;;;10.73;9.80;;;;;;;;;;518729;28;1459;-88
2022/08/18 01:53:38;;;;;;;10.50;9.60;;;;;;;;;;518708;28;1761;-87
2022/08/18 01:53:55;;;;;;;10.32;9.35;;;;;;;;;;514917;28;1591;-88
2022/08/18 01:54:12;;;;;;;9.95;9.02;;;;;;;;;;518165;28;1391;-87
2022/08/18 01:54:28;;;;;;;9.68;8.77;;;;;;;;;;518791;28;1455;-87
2022/08/18 01:54:44;;;;;;;10.00;9.10;;;;;;;;;;517016;28;1476;-88
2022/08/18 01:55:01;;;;;;;10.30;9.30;;;;;;;;;;516384;28;1567;-88
2022/08/18 01:55:16;;;;;;;9.80;8.98;;;;;;;;;;520364;28;1517;-87